Flight Briefing for CMB842

Departure Arrival
NAS Sigonella (LICZ)
Click to view FAA NOTAMS
Naval Station Rota (LERT)
Click to view FAA NOTAMS
Departure Time Arrival Time
N/A N/A
Aircraft Distance
B757-200SF 1021nm
Departure METAR Arrival METAR
LICZ 252355Z 29008KT CAVOK 10/08 Q1012 RMK SKC VIS MIN 9999 WIND THR28 29008KT WIND THR10 31007KT A2991 BLU LERT 260000Z 11016KT 080V140 CAVOK 18/08 Q1012 NOSIG
Suggested Route
NELDA5U NELDA N573 BASMO M980 TBS UA31 ALR A411 MOS A44 MGA


View recent IFR Routes data
Notes
USTRANSCOM CONTRACT FLIGHT

Charts and Procedures

Charts for LICZ
No chart available
Charts for LERT
No chart available

Windy.com Weather Map